sensor_id;sensor_type;location;lat;lon;timestamp;P1;durP1;ratioP1;P2;durP2;ratioP2
68744;SDS011;66104;45.456;11.064;2023-02-01T00:01:27;42.00;;;21.70;;
68744;SDS011;66104;45.456;11.064;2023-02-01T00:04:05;40.40;;;20.90;;
68744;SDS011;66104;45.456;11.064;2023-02-01T00:06:42;49.70;;;22.50;;
68744;SDS011;66104;45.456;11.064;2023-02-01T00:09:19;46.80;;;22.40;;
68744;SDS011;66104;45.456;11.064;2023-02-01T00:11:56;44.40;;;22.00;;
68744;SDS011;66104;45.456;11.064;2023-02-01T00:14:34;39.00;;;20.50;;
68744;SDS011;66104;45.456;11.064;2023-02-01T00:17:11;39.60;;;21.80;;
68744;SDS011;66104;45.456;11.064;2023-02-01T00:19:48;38.10;;;20.90;;
68744;SDS011;66104;45.456;11.064;2023-02-01T00:22:25;39.70;;;21.70;;
68744;SDS011;66104;45.456;11.064;2023-02-01T00:25:02;39.20;;;21.20;;
68744;SDS011;66104;45.456;11.064;2023-02-01T00:27:42;46.20;;;23.80;;
68744;SDS011;66104;45.456;11.064;2023-02-01T00:30:22;48.60;;;24.30;;
68744;SDS011;66104;45.456;11.064;2023-02-01T00:32:58;45.50;;;23.40;;
68744;SDS011;66104;45.456;11.064;2023-02-01T00:35:37;46.10;;;24.00;;
68744;SDS011;66104;45.456;11.064;2023-02-01T00:38:13;40.30;;;21.60;;
68744;SDS011;66104;45.456;11.064;2023-02-01T00:40:51;43.60;;;21.60;;
68744;SDS011;66104;45.456;11.064;2023-02-01T00:43:27;43.70;;;21.30;;
68744;SDS011;66104;45.456;11.064;2023-02-01T00:46:03;42.60;;;21.60;;
68744;SDS011;66104;45.456;11.064;2023-02-01T00:48:39;45.50;;;22.80;;
68744;SDS011;66104;45.456;11.064;2023-02-01T00:51:17;39.90;;;21.60;;
68744;SDS011;66104;45.456;11.064;2023-02-01T00:53:56;45.00;;;23.40;;
68744;SDS011;66104;45.456;11.064;2023-02-01T00:56:32;43.20;;;22.10;;
68744;SDS011;66104;45.456;11.064;2023-02-01T00:59:12;36.30;;;19.50;;
68744;SDS011;66104;45.456;11.064;2023-02-01T01:01:49;40.30;;;22.60;;
68744;SDS011;66104;45.456;11.064;2023-02-01T01:04:26;44.40;;;21.30;;
68744;SDS011;66104;45.456;11.064;2023-02-01T01:07:02;45.90;;;23.00;;
68744;SDS011;66104;45.456;11.064;2023-02-01T01:09:37;41.10;;;21.20;;
68744;SDS011;66104;45.456;11.064;2023-02-01T01:12:14;42.20;;;22.10;;
68744;SDS011;66104;45.456;11.064;2023-02-01T01:14:50;39.00;;;19.90;;
68744;SDS011;66104;45.456;11.064;2023-02-01T01:17:27;38.30;;;20.60;;
68744;SDS011;66104;45.456;11.064;2023-02-01T01:20:05;38.00;;;19.30;;
68744;SDS011;66104;45.456;11.064;2023-02-01T01:22:48;37.10;;;19.00;;
68744;SDS011;66104;45.456;11.064;2023-02-01T01:25:24;38.50;;;19.70;;
68744;SDS011;66104;45.456;11.064;2023-02-01T01:28:00;37.90;;;20.70;;
68744;SDS011;66104;45.456;11.064;2023-02-01T01:30:37;40.00;;;18.50;;
68744;SDS011;66104;45.456;11.064;2023-02-01T01:33:13;36.60;;;19.60;;
68744;SDS011;66104;45.456;11.064;2023-02-01T01:35:51;38.90;;;20.70;;
68744;SDS011;66104;45.456;11.064;2023-02-01T01:38:28;39.60;;;20.10;;
68744;SDS011;66104;45.456;11.064;2023-02-01T01:41:04;49.10;;;24.50;;
68744;SDS011;66104;45.456;11.064;2023-02-01T01:44:04;47.60;;;23.80;;
68744;SDS011;66104;45.456;11.064;2023-02-01T01:47:00;47.20;;;22.20;;
68744;SDS011;66104;45.456;11.064;2023-02-01T01:49:36;44.00;;;22.60;;
68744;SDS011;66104;45.456;11.064;2023-02-01T01:52:14;41.40;;;23.50;;
68744;SDS011;66104;45.456;11.064;2023-02-01T01:54:52;40.80;;;21.40;;
68744;SDS011;66104;45.456;11.064;2023-02-01T01:57:35;43.70;;;22.00;;
68744;SDS011;66104;45.456;11.064;2023-02-01T02:00:20;41.50;;;20.70;;
68744;SDS011;66104;45.456;11.064;2023-02-01T02:03:02;39.80;;;21.30;;
68744;SDS011;66104;45.456;11.064;2023-02-01T02:05:44;44.80;;;23.10;;
68744;SDS011;66104;45.456;11.064;2023-02-01T02:08:22;42.20;;;22.10;;
68744;SDS011;66104;45.456;11.064;2023-02-01T02:11:00;44.60;;;22.40;;
68744;SDS011;66104;45.456;11.064;2023-02-01T02:13:40;40.90;;;20.50;;
68744;SDS011;66104;45.456;11.064;2023-02-01T02:16:40;44.50;;;20.70;;
68744;SDS011;66104;45.456;11.064;2023-02-01T02:23:28;46.60;;;23.80;;
68744;SDS011;66104;45.456;11.064;2023-02-01T02:36:25;42.30;;;23.00;;
68744;SDS011;66104;45.456;11.064;2023-02-01T02:39:16;53.00;;;26.90;;
68744;SDS011;66104;45.456;11.064;2023-02-01T02:42:04;46.30;;;23.10;;
68744;SDS011;66104;45.456;11.064;2023-02-01T02:45:07;39.80;;;20.70;;
68744;SDS011;66104;45.456;11.064;2023-02-01T02:48:13;52.10;;;25.70;;
68744;SDS011;66104;45.456;11.064;2023-02-01T02:51:01;53.30;;;27.80;;
68744;SDS011;66104;45.456;11.064;2023-02-01T02:54:05;49.70;;;26.10;;
68744;SDS011;66104;45.456;11.064;2023-02-01T02:57:00;50.80;;;25.50;;
68744;SDS011;66104;45.456;11.064;2023-02-01T03:00:00;48.00;;;24.90;;
68744;SDS011;66104;45.456;11.064;2023-02-01T03:02:56;54.40;;;27.90;;
68744;SDS011;66104;45.456;11.064;2023-02-01T03:05:51;49.90;;;26.00;;
68744;SDS011;66104;45.456;11.064;2023-02-01T03:08:30;52.00;;;26.70;;
68744;SDS011;66104;45.456;11.064;2023-02-01T03:11:08;46.90;;;25.00;;
68744;SDS011;66104;45.456;11.064;2023-02-01T03:13:48;47.10;;;25.40;;
68744;SDS011;66104;45.456;11.064;2023-02-01T03:16:29;50.30;;;26.00;;
68744;SDS011;66104;45.456;11.064;2023-02-01T03:19:11;49.50;;;25.00;;
68744;SDS011;66104;45.456;11.064;2023-02-01T03:21:55;46.10;;;23.10;;
68744;SDS011;66104;45.456;11.064;2023-02-01T03:24:40;52.20;;;26.90;;
68744;SDS011;66104;45.456;11.064;2023-02-01T03:27:20;47.90;;;24.50;;
68744;SDS011;66104;45.456;11.064;2023-02-01T03:30:03;47.00;;;25.00;;
68744;SDS011;66104;45.456;11.064;2023-02-01T03:32:50;48.80;;;24.40;;
68744;SDS011;66104;45.456;11.064;2023-02-01T03:35:43;47.00;;;23.20;;
68744;SDS011;66104;45.456;11.064;2023-02-01T03:38:24;42.90;;;23.00;;
68744;SDS011;66104;45.456;11.064;2023-02-01T03:41:12;41.30;;;21.90;;
68744;SDS011;66104;45.456;11.064;2023-02-01T03:43:57;45.50;;;24.60;;
68744;SDS011;66104;45.456;11.064;2023-02-01T03:46:42;43.60;;;23.60;;
68744;SDS011;66104;45.456;11.064;2023-02-01T03:49:26;51.60;;;27.60;;
68744;SDS011;66104;45.456;11.064;2023-02-01T03:52:09;59.80;;;31.10;;
68744;SDS011;66104;45.456;11.064;2023-02-01T03:54:49;64.60;;;33.70;;
68744;SDS011;66104;45.456;11.064;2023-02-01T03:57:31;68.20;;;34.20;;
68744;SDS011;66104;45.456;11.064;2023-02-01T04:00:21;62.10;;;32.20;;
68744;SDS011;66104;45.456;11.064;2023-02-01T04:02:59;58.60;;;33.50;;
68744;SDS011;66104;45.456;11.064;2023-02-01T04:05:36;56.20;;;30.60;;
68744;SDS011;66104;45.456;11.064;2023-02-01T04:08:13;57.80;;;29.40;;
68744;SDS011;66104;45.456;11.064;2023-02-01T04:10:50;52.60;;;28.50;;
68744;SDS011;66104;45.456;11.064;2023-02-01T04:13:26;56.00;;;28.90;;
68744;SDS011;66104;45.456;11.064;2023-02-01T04:16:02;53.70;;;26.40;;
68744;SDS011;66104;45.456;11.064;2023-02-01T04:18:40;53.30;;;27.50;;
68744;SDS011;66104;45.456;11.064;2023-02-01T04:21:17;50.20;;;26.60;;
68744;SDS011;66104;45.456;11.064;2023-02-01T04:23:53;56.20;;;28.20;;
68744;SDS011;66104;45.456;11.064;2023-02-01T04:26:30;50.10;;;25.00;;
68744;SDS011;66104;45.456;11.064;2023-02-01T04:29:08;49.70;;;25.40;;
68744;SDS011;66104;45.456;11.064;2023-02-01T04:31:45;46.60;;;24.20;;
68744;SDS011;66104;45.456;11.064;2023-02-01T04:34:22;49.80;;;24.30;;
68744;SDS011;66104;45.456;11.064;2023-02-01T04:37:00;48.70;;;23.50;;
68744;SDS011;66104;45.456;11.064;2023-02-01T04:39:36;54.70;;;26.90;;
68744;SDS011;66104;45.456;11.064;2023-02-01T04:42:12;64.10;;;32.00;;
68744;SDS011;66104;45.456;11.064;2023-02-01T04:44:49;53.70;;;27.20;;
68744;SDS011;66104;45.456;11.064;2023-02-01T04:47:27;51.80;;;28.20;;
68744;SDS011;66104;45.456;11.064;2023-02-01T04:50:05;47.90;;;25.70;;
68744;SDS011;66104;45.456;11.064;2023-02-01T04:52:45;48.80;;;26.90;;
68744;SDS011;66104;45.456;11.064;2023-02-01T04:55:22;52.30;;;26.70;;
68744;SDS011;66104;45.456;11.064;2023-02-01T04:57:58;53.60;;;28.10;;
68744;SDS011;66104;45.456;11.064;2023-02-01T05:00:35;50.80;;;25.70;;
68744;SDS011;66104;45.456;11.064;2023-02-01T05:03:13;51.10;;;26.40;;
68744;SDS011;66104;45.456;11.064;2023-02-01T05:05:50;45.90;;;24.70;;
68744;SDS011;66104;45.456;11.064;2023-02-01T05:08:28;50.60;;;25.90;;
68744;SDS011;66104;45.456;11.064;2023-02-01T05:11:09;42.50;;;23.50;;
68744;SDS011;66104;45.456;11.064;2023-02-01T05:13:58;49.80;;;24.90;;
68744;SDS011;66104;45.456;11.064;2023-02-01T05:16:34;44.70;;;24.80;;
68744;SDS011;66104;45.456;11.064;2023-02-01T05:19:12;48.60;;;25.60;;
68744;SDS011;66104;45.456;11.064;2023-02-01T05:21:49;43.20;;;23.20;;
68744;SDS011;66104;45.456;11.064;2023-02-01T05:24:25;48.10;;;24.60;;
68744;SDS011;66104;45.456;11.064;2023-02-01T05:27:02;46.50;;;23.60;;
68744;SDS011;66104;45.456;11.064;2023-02-01T05:29:38;52.90;;;26.60;;
68744;SDS011;66104;45.456;11.064;2023-02-01T05:32:15;58.20;;;29.80;;
68744;SDS011;66104;45.456;11.064;2023-02-01T05:34:53;55.70;;;27.50;;
68744;SDS011;66104;45.456;11.064;2023-02-01T05:37:30;54.90;;;28.00;;
68744;SDS011;66104;45.456;11.064;2023-02-01T05:40:11;53.90;;;27.90;;
68744;SDS011;66104;45.456;11.064;2023-02-01T05:42:48;53.80;;;28.40;;
68744;SDS011;66104;45.456;11.064;2023-02-01T05:45:25;50.40;;;27.00;;
68744;SDS011;66104;45.456;11.064;2023-02-01T05:48:02;46.50;;;25.60;;
68744;SDS011;66104;45.456;11.064;2023-02-01T05:50:41;50.10;;;26.10;;
68744;SDS011;66104;45.456;11.064;2023-02-01T05:53:19;47.30;;;25.70;;
68744;SDS011;66104;45.456;11.064;2023-02-01T05:55:57;48.80;;;25.30;;
68744;SDS011;66104;45.456;11.064;2023-02-01T05:58:33;47.30;;;24.90;;
68744;SDS011;66104;45.456;11.064;2023-02-01T06:01:10;50.60;;;26.60;;
68744;SDS011;66104;45.456;11.064;2023-02-01T06:03:47;53.00;;;26.60;;
68744;SDS011;66104;45.456;11.064;2023-02-01T06:06:24;57.30;;;28.60;;
68744;SDS011;66104;45.456;11.064;2023-02-01T06:09:02;47.90;;;24.70;;
68744;SDS011;66104;45.456;11.064;2023-02-01T06:11:40;46.90;;;24.60;;
68744;SDS011;66104;45.456;11.064;2023-02-01T06:14:17;47.40;;;24.60;;
68744;SDS011;66104;45.456;11.064;2023-02-01T06:16:55;47.00;;;24.00;;
68744;SDS011;66104;45.456;11.064;2023-02-01T06:19:32;44.00;;;22.40;;
68744;SDS011;66104;45.456;11.064;2023-02-01T06:22:08;60.20;;;28.60;;
68744;SDS011;66104;45.456;11.064;2023-02-01T06:24:44;68.40;;;34.40;;
68744;SDS011;66104;45.456;11.064;2023-02-01T06:27:22;66.00;;;33.80;;
68744;SDS011;66104;45.456;11.064;2023-02-01T06:29:58;56.60;;;29.40;;
68744;SDS011;66104;45.456;11.064;2023-02-01T06:32:34;58.40;;;30.90;;
68744;SDS011;66104;45.456;11.064;2023-02-01T06:35:13;50.90;;;25.70;;
68744;SDS011;66104;45.456;11.064;2023-02-01T06:37:51;56.20;;;28.00;;
68744;SDS011;66104;45.456;11.064;2023-02-01T06:40:30;50.40;;;28.10;;
68744;SDS011;66104;45.456;11.064;2023-02-01T06:43:07;54.00;;;27.40;;
68744;SDS011;66104;45.456;11.064;2023-02-01T06:45:43;54.70;;;27.80;;
68744;SDS011;66104;45.456;11.064;2023-02-01T06:48:20;48.80;;;25.80;;
68744;SDS011;66104;45.456;11.064;2023-02-01T06:50:56;53.50;;;26.60;;
68744;SDS011;66104;45.456;11.064;2023-02-01T06:53:34;48.80;;;25.90;;
68744;SDS011;66104;45.456;11.064;2023-02-01T06:56:12;50.30;;;26.70;;
68744;SDS011;66104;45.456;11.064;2023-02-01T06:58:49;47.60;;;25.20;;
68744;SDS011;66104;45.456;11.064;2023-02-01T07:01:25;62.20;;;29.20;;
68744;SDS011;66104;45.456;11.064;2023-02-01T07:04:03;75.40;;;33.10;;
68744;SDS011;66104;45.456;11.064;2023-02-01T07:06:40;47.70;;;24.90;;
68744;SDS011;66104;45.456;11.064;2023-02-01T07:09:17;44.60;;;23.00;;
68744;SDS011;66104;45.456;11.064;2023-02-01T07:11:54;58.80;;;31.10;;
68744;SDS011;66104;45.456;11.064;2023-02-01T07:14:32;60.80;;;30.90;;
68744;SDS011;66104;45.456;11.064;2023-02-01T07:17:08;72.70;;;36.60;;
68744;SDS011;66104;45.456;11.064;2023-02-01T07:19:45;70.30;;;36.00;;
68744;SDS011;66104;45.456;11.064;2023-02-01T07:22:22;70.20;;;36.20;;
68744;SDS011;66104;45.456;11.064;2023-02-01T07:24:59;62.60;;;33.80;;
68744;SDS011;66104;45.456;11.064;2023-02-01T07:27:38;57.70;;;31.80;;
68744;SDS011;66104;45.456;11.064;2023-02-01T07:30:19;55.20;;;29.60;;
68744;SDS011;66104;45.456;11.064;2023-02-01T07:32:55;61.80;;;32.20;;
68744;SDS011;66104;45.456;11.064;2023-02-01T07:35:33;54.80;;;30.70;;
68744;SDS011;66104;45.456;11.064;2023-02-01T07:38:11;58.10;;;31.50;;
68744;SDS011;66104;45.456;11.064;2023-02-01T07:40:47;54.20;;;31.00;;
68744;SDS011;66104;45.456;11.064;2023-02-01T07:43:25;57.20;;;31.70;;
68744;SDS011;66104;45.456;11.064;2023-02-01T07:46:02;49.90;;;28.40;;
68744;SDS011;66104;45.456;11.064;2023-02-01T07:48:40;56.60;;;30.30;;
68744;SDS011;66104;45.456;11.064;2023-02-01T07:51:18;55.30;;;28.20;;
68744;SDS011;66104;45.456;11.064;2023-02-01T07:53:55;53.20;;;30.60;;
68744;SDS011;66104;45.456;11.064;2023-02-01T07:56:31;49.60;;;23.90;;
68744;SDS011;66104;45.456;11.064;2023-02-01T07:59:09;71.90;;;34.50;;
68744;SDS011;66104;45.456;11.064;2023-02-01T08:01:47;72.70;;;36.00;;
68744;SDS011;66104;45.456;11.064;2023-02-01T08:04:23;65.40;;;30.80;;
68744;SDS011;66104;45.456;11.064;2023-02-01T08:07:00;57.60;;;31.20;;
68744;SDS011;66104;45.456;11.064;2023-02-01T08:09:36;62.80;;;33.90;;
68744;SDS011;66104;45.456;11.064;2023-02-01T08:12:13;60.10;;;32.10;;
68744;SDS011;66104;45.456;11.064;2023-02-01T08:14:51;56.40;;;31.30;;
68744;SDS011;66104;45.456;11.064;2023-02-01T08:17:27;61.60;;;34.60;;
68744;SDS011;66104;45.456;11.064;2023-02-01T08:20:06;60.20;;;31.40;;
68744;SDS011;66104;45.456;11.064;2023-02-01T08:22:47;52.80;;;27.70;;
68744;SDS011;66104;45.456;11.064;2023-02-01T08:25:24;50.70;;;27.70;;
68744;SDS011;66104;45.456;11.064;2023-02-01T08:28:01;58.10;;;33.40;;
68744;SDS011;66104;45.456;11.064;2023-02-01T08:30:38;67.30;;;41.20;;
68744;SDS011;66104;45.456;11.064;2023-02-01T08:33:15;68.20;;;40.40;;
68744;SDS011;66104;45.456;11.064;2023-02-01T08:35:51;59.00;;;30.80;;
68744;SDS011;66104;45.456;11.064;2023-02-01T08:38:28;58.50;;;34.00;;
68744;SDS011;66104;45.456;11.064;2023-02-01T08:41:09;54.00;;;30.40;;
68744;SDS011;66104;45.456;11.064;2023-02-01T08:43:47;51.30;;;29.80;;
68744;SDS011;66104;45.456;11.064;2023-02-01T08:46:24;42.20;;;22.70;;
68744;SDS011;66104;45.456;11.064;2023-02-01T08:49:00;50.00;;;25.60;;
68744;SDS011;66104;45.456;11.064;2023-02-01T08:51:37;46.80;;;25.50;;
68744;SDS011;66104;45.456;11.064;2023-02-01T08:54:14;66.50;;;35.00;;
68744;SDS011;66104;45.456;11.064;2023-02-01T08:56:50;75.50;;;39.40;;
68744;SDS011;66104;45.456;11.064;2023-02-01T08:59:28;71.40;;;36.30;;
68744;SDS011;66104;45.456;11.064;2023-02-01T09:02:05;64.90;;;36.20;;
68744;SDS011;66104;45.456;11.064;2023-02-01T09:04:46;65.10;;;34.70;;
68744;SDS011;66104;45.456;11.064;2023-02-01T09:07:23;60.40;;;34.00;;
68744;SDS011;66104;45.456;11.064;2023-02-01T09:10:00;60.30;;;32.50;;
68744;SDS011;66104;45.456;11.064;2023-02-01T09:12:37;55.40;;;30.60;;
68744;SDS011;66104;45.456;11.064;2023-02-01T09:15:14;62.10;;;32.70;;
68744;SDS011;66104;45.456;11.064;2023-02-01T09:17:52;57.40;;;32.90;;
68744;SDS011;66104;45.456;11.064;2023-02-01T09:20:27;56.50;;;32.20;;
68744;SDS011;66104;45.456;11.064;2023-02-01T09:23:05;54.40;;;29.80;;
68744;SDS011;66104;45.456;11.064;2023-02-01T09:25:42;53.60;;;30.90;;
68744;SDS011;66104;45.456;11.064;2023-02-01T09:28:19;53.70;;;30.70;;
68744;SDS011;66104;45.456;11.064;2023-02-01T09:30:58;57.50;;;31.10;;
68744;SDS011;66104;45.456;11.064;2023-02-01T09:33:34;52.10;;;28.30;;
68744;SDS011;66104;45.456;11.064;2023-02-01T09:36:13;61.70;;;32.60;;
68744;SDS011;66104;45.456;11.064;2023-02-01T09:38:51;65.10;;;35.30;;
68744;SDS011;66104;45.456;11.064;2023-02-01T09:41:39;64.40;;;33.80;;
68744;SDS011;66104;45.456;11.064;2023-02-01T09:44:34;59.60;;;31.80;;
68744;SDS011;66104;45.456;11.064;2023-02-01T09:47:26;58.00;;;31.50;;
68744;SDS011;66104;45.456;11.064;2023-02-01T09:50:09;53.60;;;28.60;;
68744;SDS011;66104;45.456;11.064;2023-02-01T09:52:56;50.60;;;28.30;;
68744;SDS011;66104;45.456;11.064;2023-02-01T09:55:40;56.10;;;31.40;;
68744;SDS011;66104;45.456;11.064;2023-02-01T09:58:25;75.10;;;39.10;;
68744;SDS011;66104;45.456;11.064;2023-02-01T10:01:12;66.10;;;34.80;;
68744;SDS011;66104;45.456;11.064;2023-02-01T10:04:02;63.60;;;35.60;;
68744;SDS011;66104;45.456;11.064;2023-02-01T10:06:51;76.60;;;39.90;;
68744;SDS011;66104;45.456;11.064;2023-02-01T10:09:54;73.90;;;37.10;;
68744;SDS011;66104;45.456;11.064;2023-02-01T10:12:51;72.30;;;37.60;;
68744;SDS011;66104;45.456;11.064;2023-02-01T10:15:55;64.30;;;36.20;;
68744;SDS011;66104;45.456;11.064;2023-02-01T10:22:03;72.60;;;38.20;;
68744;SDS011;66104;45.456;11.064;2023-02-01T10:24:47;68.40;;;36.30;;
68744;SDS011;66104;45.456;11.064;2023-02-01T10:27:33;67.60;;;38.80;;
68744;SDS011;66104;45.456;11.064;2023-02-01T10:30:21;64.50;;;37.60;;
68744;SDS011;66104;45.456;11.064;2023-02-01T10:33:16;53.70;;;30.70;;
68744;SDS011;66104;45.456;11.064;2023-02-01T10:36:01;63.40;;;34.90;;
68744;SDS011;66104;45.456;11.064;2023-02-01T10:38:45;64.80;;;37.70;;
68744;SDS011;66104;45.456;11.064;2023-02-01T10:41:24;77.40;;;41.40;;
68744;SDS011;66104;45.456;11.064;2023-02-01T10:44:11;75.90;;;41.50;;
68744;SDS011;66104;45.456;11.064;2023-02-01T10:46:50;78.70;;;41.20;;
68744;SDS011;66104;45.456;11.064;2023-02-01T10:49:32;75.00;;;41.00;;
68744;SDS011;66104;45.456;11.064;2023-02-01T10:52:15;88.50;;;46.60;;
68744;SDS011;66104;45.456;11.064;2023-02-01T10:54:55;72.20;;;38.10;;
68744;SDS011;66104;45.456;11.064;2023-02-01T10:57:59;81.70;;;42.40;;
68744;SDS011;66104;45.456;11.064;2023-02-01T11:00:49;73.60;;;39.70;;
68744;SDS011;66104;45.456;11.064;2023-02-01T11:03:36;77.40;;;43.60;;
68744;SDS011;66104;45.456;11.064;2023-02-01T11:06:28;73.10;;;40.80;;
68744;SDS011;66104;45.456;11.064;2023-02-01T11:09:17;72.60;;;38.80;;
68744;SDS011;66104;45.456;11.064;2023-02-01T11:11:59;66.90;;;37.90;;
68744;SDS011;66104;45.456;11.064;2023-02-01T11:14:40;71.90;;;39.40;;
68744;SDS011;66104;45.456;11.064;2023-02-01T11:17:32;78.20;;;43.20;;
68744;SDS011;66104;45.456;11.064;2023-02-01T11:20:20;76.60;;;40.20;;
68744;SDS011;66104;45.456;11.064;2023-02-01T11:23:16;73.40;;;39.90;;
68744;SDS011;66104;45.456;11.064;2023-02-01T11:25:57;67.30;;;36.40;;
68744;SDS011;66104;45.456;11.064;2023-02-01T11:28:46;71.90;;;38.00;;
68744;SDS011;66104;45.456;11.064;2023-02-01T11:31:28;70.10;;;37.40;;
68744;SDS011;66104;45.456;11.064;2023-02-01T11:34:12;73.50;;;39.10;;
68744;SDS011;66104;45.456;11.064;2023-02-01T11:36:51;69.70;;;35.70;;
68744;SDS011;66104;45.456;11.064;2023-02-01T11:39:34;74.30;;;38.40;;
68744;SDS011;66104;45.456;11.064;2023-02-01T11:42:16;66.20;;;37.40;;
68744;SDS011;66104;45.456;11.064;2023-02-01T11:45:07;71.60;;;38.80;;
68744;SDS011;66104;45.456;11.064;2023-02-01T11:47:56;70.00;;;38.70;;
68744;SDS011;66104;45.456;11.064;2023-02-01T11:50:41;74.80;;;39.30;;
68744;SDS011;66104;45.456;11.064;2023-02-01T11:53:31;74.80;;;39.00;;
68744;SDS011;66104;45.456;11.064;2023-02-01T11:56:22;66.10;;;36.90;;
68744;SDS011;66104;45.456;11.064;2023-02-01T12:02:37;65.80;;;36.40;;
68744;SDS011;66104;45.456;11.064;2023-02-01T12:05:44;63.00;;;34.70;;
68744;SDS011;66104;45.456;11.064;2023-02-01T12:08:41;70.70;;;37.60;;
68744;SDS011;66104;45.456;11.064;2023-02-01T12:11:42;68.00;;;36.50;;
68744;SDS011;66104;45.456;11.064;2023-02-01T12:14:42;68.40;;;37.20;;
68744;SDS011;66104;45.456;11.064;2023-02-01T12:21:12;64.00;;;34.80;;
68744;SDS011;66104;45.456;11.064;2023-02-01T12:24:16;71.10;;;39.10;;
68744;SDS011;66104;45.456;11.064;2023-02-01T12:27:19;64.90;;;36.50;;
68744;SDS011;66104;45.456;11.064;2023-02-01T12:30:23;69.50;;;38.10;;
68744;SDS011;66104;45.456;11.064;2023-02-01T12:33:21;62.80;;;34.10;;
68744;SDS011;66104;45.456;11.064;2023-02-01T12:36:16;60.60;;;35.30;;
68744;SDS011;66104;45.456;11.064;2023-02-01T12:39:06;71.20;;;39.60;;
68744;SDS011;66104;45.456;11.064;2023-02-01T12:41:56;66.20;;;37.20;;
68744;SDS011;66104;45.456;11.064;2023-02-01T12:44:50;68.90;;;36.90;;
68744;SDS011;66104;45.456;11.064;2023-02-01T12:47:33;73.90;;;41.20;;
68744;SDS011;66104;45.456;11.064;2023-02-01T12:50:20;73.50;;;42.80;;
68744;SDS011;66104;45.456;11.064;2023-02-01T12:53:12;76.90;;;41.70;;
68744;SDS011;66104;45.456;11.064;2023-02-01T12:55:57;73.70;;;40.20;;
68744;SDS011;66104;45.456;11.064;2023-02-01T12:58:44;69.30;;;41.20;;
68744;SDS011;66104;45.456;11.064;2023-02-01T13:01:28;63.20;;;37.00;;
68744;SDS011;66104;45.456;11.064;2023-02-01T13:04:15;65.80;;;36.70;;
68744;SDS011;66104;45.456;11.064;2023-02-01T13:07:03;65.30;;;37.60;;
68744;SDS011;66104;45.456;11.064;2023-02-01T13:09:52;73.50;;;41.60;;
68744;SDS011;66104;45.456;11.064;2023-02-01T13:12:35;81.10;;;44.10;;
68744;SDS011;66104;45.456;11.064;2023-02-01T13:15:21;66.80;;;37.70;;
68744;SDS011;66104;45.456;11.064;2023-02-01T13:18:03;64.40;;;37.80;;
68744;SDS011;66104;45.456;11.064;2023-02-01T13:20:49;72.10;;;41.30;;
68744;SDS011;66104;45.456;11.064;2023-02-01T13:23:33;66.60;;;37.80;;
68744;SDS011;66104;45.456;11.064;2023-02-01T13:26:13;69.60;;;38.70;;
68744;SDS011;66104;45.456;11.064;2023-02-01T13:28:52;67.80;;;38.00;;
68744;SDS011;66104;45.456;11.064;2023-02-01T13:41:42;73.00;;;42.50;;
68744;SDS011;66104;45.456;11.064;2023-02-01T13:44:31;70.20;;;40.40;;
68744;SDS011;66104;45.456;11.064;2023-02-01T13:47:19;72.40;;;41.20;;
68744;SDS011;66104;45.456;11.064;2023-02-01T13:50:11;71.90;;;41.10;;
68744;SDS011;66104;45.456;11.064;2023-02-01T13:52:58;77.50;;;45.60;;
68744;SDS011;66104;45.456;11.064;2023-02-01T13:55:39;74.30;;;43.10;;
68744;SDS011;66104;45.456;11.064;2023-02-01T13:58:20;68.10;;;39.10;;
68744;SDS011;66104;45.456;11.064;2023-02-01T14:04:48;74.80;;;43.90;;
68744;SDS011;66104;45.456;11.064;2023-02-01T14:07:25;66.80;;;38.30;;
68744;SDS011;66104;45.456;11.064;2023-02-01T14:10:47;67.80;;;37.90;;
68744;SDS011;66104;45.456;11.064;2023-02-01T14:13:29;64.30;;;37.40;;
68744;SDS011;66104;45.456;11.064;2023-02-01T14:16:19;73.80;;;40.60;;
68744;SDS011;66104;45.456;11.064;2023-02-01T14:19:06;83.00;;;46.50;;
68744;SDS011;66104;45.456;11.064;2023-02-01T14:21:54;67.50;;;40.20;;
68744;SDS011;66104;45.456;11.064;2023-02-01T14:24:34;76.20;;;43.10;;
68744;SDS011;66104;45.456;11.064;2023-02-01T14:27:37;73.70;;;41.50;;
68744;SDS011;66104;45.456;11.064;2023-02-01T14:30:18;74.90;;;42.80;;
68744;SDS011;66104;45.456;11.064;2023-02-01T14:32:57;72.40;;;41.50;;
68744;SDS011;66104;45.456;11.064;2023-02-01T14:38:52;79.20;;;43.60;;
68744;SDS011;66104;45.456;11.064;2023-02-01T14:41:32;73.30;;;40.60;;
68744;SDS011;66104;45.456;11.064;2023-02-01T14:44:38;68.80;;;39.30;;
68744;SDS011;66104;45.456;11.064;2023-02-01T14:47:34;77.20;;;43.70;;
68744;SDS011;66104;45.456;11.064;2023-02-01T14:50:34;74.80;;;43.00;;
68744;SDS011;66104;45.456;11.064;2023-02-01T14:53:27;75.90;;;42.70;;
68744;SDS011;66104;45.456;11.064;2023-02-01T14:56:11;74.40;;;41.70;;
68744;SDS011;66104;45.456;11.064;2023-02-01T14:58:57;80.90;;;44.30;;
68744;SDS011;66104;45.456;11.064;2023-02-01T15:01:52;78.40;;;45.60;;
68744;SDS011;66104;45.456;11.064;2023-02-01T15:04:30;69.30;;;38.90;;
68744;SDS011;66104;45.456;11.064;2023-02-01T15:07:16;76.40;;;42.10;;
68744;SDS011;66104;45.456;11.064;2023-02-01T15:09:57;78.10;;;44.90;;
68744;SDS011;66104;45.456;11.064;2023-02-01T15:12:41;87.20;;;43.90;;
68744;SDS011;66104;45.456;11.064;2023-02-01T15:15:21;71.10;;;40.20;;
68744;SDS011;66104;45.456;11.064;2023-02-01T15:17:58;72.20;;;37.90;;
68744;SDS011;66104;45.456;11.064;2023-02-01T15:20:36;75.00;;;41.00;;
68744;SDS011;66104;45.456;11.064;2023-02-01T15:23:34;82.00;;;43.70;;
68744;SDS011;66104;45.456;11.064;2023-02-01T15:26:11;75.60;;;41.30;;
68744;SDS011;66104;45.456;11.064;2023-02-01T15:29:01;71.40;;;41.90;;
68744;SDS011;66104;45.456;11.064;2023-02-01T15:31:39;79.70;;;42.10;;
68744;SDS011;66104;45.456;11.064;2023-02-01T15:34:18;77.70;;;42.50;;
68744;SDS011;66104;45.456;11.064;2023-02-01T15:37:06;74.10;;;42.60;;
68744;SDS011;66104;45.456;11.064;2023-02-01T15:40:18;77.70;;;43.00;;
68744;SDS011;66104;45.456;11.064;2023-02-01T15:42:57;73.60;;;42.20;;
68744;SDS011;66104;45.456;11.064;2023-02-01T15:45:35;74.80;;;40.60;;
68744;SDS011;66104;45.456;11.064;2023-02-01T15:48:23;79.20;;;43.40;;
68744;SDS011;66104;45.456;11.064;2023-02-01T15:54:07;79.10;;;43.30;;
68744;SDS011;66104;45.456;11.064;2023-02-01T15:56:54;77.70;;;43.50;;
68744;SDS011;66104;45.456;11.064;2023-02-01T15:59:36;80.60;;;43.70;;
68744;SDS011;66104;45.456;11.064;2023-02-01T16:02:32;80.00;;;44.50;;
68744;SDS011;66104;45.456;11.064;2023-02-01T16:05:28;87.80;;;45.50;;
68744;SDS011;66104;45.456;11.064;2023-02-01T16:08:11;80.80;;;43.10;;
68744;SDS011;66104;45.456;11.064;2023-02-01T16:10:51;86.60;;;47.00;;
68744;SDS011;66104;45.456;11.064;2023-02-01T16:13:28;96.70;;;46.20;;
68744;SDS011;66104;45.456;11.064;2023-02-01T16:16:05;84.20;;;45.30;;
68744;SDS011;66104;45.456;11.064;2023-02-01T16:18:45;81.40;;;45.40;;
68744;SDS011;66104;45.456;11.064;2023-02-01T16:21:22;89.70;;;49.40;;